createdAt,value
2022-11-14T00:01:15.117Z,5.22
2022-11-14T00:03:42.938Z,5.65
2022-11-14T00:06:13.562Z,5.30
2022-11-14T00:08:41.394Z,6.07
2022-11-14T00:11:10.265Z,7.10
2022-11-14T00:13:38.140Z,6.30
2022-11-14T00:16:06.159Z,6.82
2022-11-14T00:18:33.919Z,6.78
2022-11-14T00:21:01.900Z,6.60
2022-11-14T00:23:31.100Z,7.03
2022-11-14T00:25:59.072Z,7.22
2022-11-14T00:28:27.247Z,7.47
2022-11-14T00:30:55.145Z,6.70
2022-11-14T00:33:22.999Z,6.97
2022-11-14T00:35:54.678Z,7.03
2022-11-14T00:38:23.335Z,6.90
2022-11-14T00:40:52.682Z,4.95
2022-11-14T00:43:20.386Z,5.25
2022-11-14T00:45:48.843Z,6.80
2022-11-14T00:58:09.723Z,4.78
2022-11-14T01:00:37.777Z,5.82
2022-11-14T01:03:05.556Z,5.80
2022-11-14T01:05:33.471Z,5.25
2022-11-14T01:08:01.345Z,5.90
2022-11-14T01:10:29.420Z,5.90
2022-11-14T01:12:57.186Z,5.60
2022-11-14T01:15:26.876Z,6.60
2022-11-14T01:17:54.637Z,5.63
2022-11-14T01:20:22.394Z,6.13
2022-11-14T01:22:50.257Z,5.55
2022-11-14T01:25:18.111Z,5.78
2022-11-14T01:27:45.837Z,4.70
2022-11-14T01:30:14.997Z,5.53
2022-11-14T01:32:44.157Z,5.40
2022-11-14T01:35:12.057Z,6.05
2022-11-14T01:37:39.929Z,5.03
2022-11-14T01:40:08.988Z,6.00
2022-11-14T01:42:36.741Z,7.90
2022-11-14T01:45:37.703Z,6.88
2022-11-14T01:48:19.432Z,6.38
2022-11-14T01:50:47.980Z,5.95
2022-11-14T01:55:43.324Z,6.80
2022-11-14T01:58:11.634Z,5.95
2022-11-14T02:00:39.478Z,6.60
2022-11-14T02:03:08.742Z,7.45
2022-11-14T02:05:37.625Z,6.43
2022-11-14T02:08:05.650Z,6.65
2022-11-14T02:10:33.620Z,6.55
2022-11-14T02:13:01.359Z,6.25
2022-11-14T02:15:29.133Z,6.13
2022-11-14T02:17:57.398Z,6.43
2022-11-14T02:20:29.634Z,5.70
2022-11-14T02:22:57.439Z,5.70
2022-11-14T02:25:25.862Z,5.55
2022-11-14T02:27:54.213Z,5.25
2022-11-14T02:30:23.654Z,6.40
2022-11-14T02:33:09.998Z,5.90
2022-11-14T02:35:39.696Z,6.03
2022-11-14T02:38:07.514Z,6.32
2022-11-14T02:40:35.329Z,6.45
2022-11-14T02:43:03.973Z,6.45
2022-11-14T02:45:31.797Z,7.13
2022-11-14T02:47:59.801Z,4.75
2022-11-14T02:50:27.513Z,5.25
2022-11-14T02:52:56.636Z,5.47
2022-11-14T02:55:24.552Z,5.03
2022-11-14T02:57:52.378Z,5.60
2022-11-14T03:00:20.705Z,5.30
2022-11-14T03:02:48.641Z,5.40
2022-11-14T03:05:16.745Z,5.82
2022-11-14T03:07:44.506Z,5.25
2022-11-14T03:10:14.124Z,4.93
2022-11-14T03:12:42.006Z,5.82
2022-11-14T03:15:11.106Z,5.10
2022-11-14T03:17:41.804Z,5.78
2022-11-14T03:20:10.994Z,6.65
2022-11-14T03:22:38.917Z,4.82
2022-11-14T03:25:07.307Z,5.70
2022-11-14T03:27:37.576Z,5.88
2022-11-14T03:30:05.972Z,6.10
2022-11-14T03:32:33.843Z,5.47
2022-11-14T03:35:01.731Z,5.07
2022-11-14T03:37:29.609Z,6.40
2022-11-14T03:39:57.438Z,4.95
2022-11-14T03:42:25.394Z,6.32
2022-11-14T03:44:54.507Z,6.65
2022-11-14T03:47:22.525Z,5.82
2022-11-14T03:49:50.232Z,7.13
2022-11-14T03:52:18.040Z,6.68
2022-11-14T03:54:45.858Z,5.88
2022-11-14T03:57:13.865Z,6.68
2022-11-14T03:59:41.713Z,6.25
2022-11-14T04:02:10.892Z,5.93
2022-11-14T04:04:38.867Z,6.57
2022-11-14T04:07:06.662Z,6.20
2022-11-14T04:09:34.428Z,5.82
2022-11-14T04:12:02.172Z,5.43
2022-11-14T04:14:30.118Z,5.53
2022-11-14T04:16:57.820Z,4.85
2022-11-14T04:19:26.926Z,5.68
2022-11-14T04:21:54.742Z,5.55
2022-11-14T04:24:22.549Z,6.05
2022-11-14T04:26:50.304Z,5.82
2022-11-14T04:29:18.051Z,5.65
2022-11-14T04:31:45.998Z,5.72
2022-11-14T04:34:14.225Z,6.25
2022-11-14T04:36:43.461Z,6.63
2022-11-14T04:39:11.238Z,6.07
2022-11-14T04:41:39.034Z,6.15
2022-11-14T04:44:06.859Z,6.45
2022-11-14T04:46:34.599Z,7.50
2022-11-14T04:49:02.638Z,6.30
2022-11-14T04:51:30.309Z,7.40
2022-11-14T04:53:59.410Z,6.70
2022-11-14T04:56:27.325Z,6.97
2022-11-14T04:58:55.166Z,7.18
2022-11-14T05:01:23.313Z,7.40
2022-11-14T05:03:51.269Z,7.20
2022-11-14T05:06:19.032Z,7.22
2022-11-14T05:08:48.422Z,6.35
2022-11-14T05:11:18.511Z,7.30
2022-11-14T05:13:46.831Z,6.55
2022-11-14T05:16:14.799Z,7.13
2022-11-14T05:18:46.891Z,7.20
2022-11-14T05:21:16.577Z,7.63
2022-11-14T05:23:44.378Z,7.28
2022-11-14T05:26:15.558Z,8.00
2022-11-14T05:28:44.633Z,8.00
2022-11-14T05:31:15.020Z,6.95
2022-11-14T05:33:42.820Z,6.80
2022-11-14T05:36:12.724Z,6.78
2022-11-14T05:38:40.928Z,7.55
2022-11-14T05:41:09.272Z,7.05
2022-11-14T05:43:37.476Z,7.03
2022-11-14T05:46:08.253Z,7.35
2022-11-14T05:48:36.077Z,7.43
2022-11-14T05:51:05.906Z,6.97
2022-11-14T05:53:34.774Z,7.32
2022-11-14T05:56:02.935Z,7.45
2022-11-14T05:58:32.214Z,6.07
2022-11-14T06:01:07.277Z,7.57
2022-11-14T06:03:36.193Z,7.20
2022-11-14T06:06:05.566Z,7.70
2022-11-14T06:08:33.772Z,6.72
2022-11-14T06:11:05.546Z,5.93
2022-11-14T06:13:33.551Z,6.07
2022-11-14T06:16:02.275Z,6.03
2022-11-14T06:18:32.182Z,6.43
2022-11-14T06:21:01.102Z,6.63
2022-11-14T06:23:29.735Z,6.88
2022-11-14T06:26:01.624Z,7.28
2022-11-14T06:28:29.744Z,5.88
2022-11-14T06:30:59.023Z,5.53
2022-11-14T06:33:26.944Z,6.10
2022-11-14T06:36:00.380Z,5.47
2022-11-14T06:38:28.612Z,6.40
2022-11-14T06:41:03.675Z,5.43
2022-11-14T06:43:34.075Z,6.45
2022-11-14T06:46:02.042Z,5.70
2022-11-14T06:48:31.240Z,7.97
2022-11-14T06:51:01.814Z,7.72
2022-11-14T06:53:31.986Z,5.90
2022-11-14T06:56:01.563Z,6.18
2022-11-14T06:58:30.731Z,7.78
2022-11-14T07:01:04.970Z,7.72
2022-11-14T07:03:33.265Z,5.72
2022-11-14T07:06:03.177Z,7.22
2022-11-14T07:08:31.632Z,7.78
2022-11-14T07:11:03.611Z,7.15
2022-11-14T07:13:32.424Z,7.72
2022-11-14T07:16:00.906Z,7.82
2022-11-14T07:21:00.322Z,5.65
2022-11-14T07:23:30.356Z,6.78
2022-11-14T07:26:01.857Z,6.10
2022-11-14T07:28:30.008Z,6.15
2022-11-14T07:30:58.089Z,5.65
2022-11-14T07:33:25.959Z,4.70
2022-11-14T07:35:53.748Z,6.13
2022-11-14T07:38:21.405Z,4.82
2022-11-14T07:40:59.628Z,4.75
2022-11-14T07:43:29.086Z,5.95
2022-11-14T07:46:01.255Z,6.00
2022-11-14T07:48:29.404Z,6.63
2022-11-14T07:51:00.031Z,6.28
2022-11-14T07:53:28.247Z,6.30
2022-11-14T07:55:57.783Z,5.63
2022-11-14T07:58:25.588Z,5.28
2022-11-14T08:00:53.562Z,6.30
2022-11-14T08:03:21.476Z,4.85
2022-11-14T08:05:49.253Z,6.05
2022-11-14T08:08:16.961Z,4.90
2022-11-14T08:10:44.714Z,5.13
2022-11-14T08:16:10.805Z,5.85
2022-11-14T08:18:39.925Z,4.82
2022-11-14T08:21:08.340Z,5.28
2022-11-14T08:23:36.520Z,6.38
2022-11-14T08:26:04.317Z,5.63
2022-11-14T08:28:33.929Z,5.57
2022-11-14T08:31:02.568Z,5.85
2022-11-14T08:33:30.825Z,6.72
2022-11-14T08:36:01.966Z,4.93
2022-11-14T08:38:30.310Z,7.07
2022-11-14T08:40:59.668Z,7.00
2022-11-14T08:43:27.655Z,7.30
2022-11-14T08:46:01.837Z,6.40
2022-11-14T08:48:31.277Z,6.65
2022-11-14T08:50:59.614Z,6.82
2022-11-14T08:53:27.404Z,6.68
2022-11-14T08:55:55.322Z,6.78
2022-11-14T08:58:23.371Z,7.50
2022-11-14T09:00:52.052Z,8.20
2022-11-14T09:03:21.236Z,6.78
2022-11-14T09:05:52.828Z,7.45
2022-11-14T09:08:20.693Z,6.32
2022-11-14T09:10:48.718Z,5.90
2022-11-14T09:13:16.454Z,7.47
2022-11-14T09:15:44.339Z,8.75
2022-11-14T09:18:12.887Z,8.63
2022-11-14T09:23:11.091Z,8.65
2022-11-14T09:25:38.948Z,7.80
2022-11-14T09:28:07.577Z,7.43
2022-11-14T09:30:36.807Z,8.38
2022-11-14T09:33:11.465Z,3.35
2022-11-14T09:35:39.806Z,7.45
2022-11-14T09:38:12.192Z,3.17
2022-11-14T09:40:53.485Z,5.68
2022-11-14T09:45:57.913Z,4.50
2022-11-14T09:48:30.698Z,4.90
2022-11-14T09:51:08.505Z,3.72
2022-11-14T09:53:44.138Z,5.47
2022-11-14T09:56:14.459Z,5.40
2022-11-14T09:58:43.225Z,6.15
2022-11-14T10:01:19.233Z,6.47
2022-11-14T10:03:55.545Z,4.38
2022-11-14T10:06:31.019Z,6.57
2022-11-14T10:09:30.204Z,4.07
2022-11-14T10:12:06.291Z,7.63
2022-11-14T10:15:02.544Z,7.95
2022-11-14T10:17:50.622Z,6.93
2022-11-14T10:20:24.083Z,3.72
2022-11-14T10:23:07.291Z,5.45
2022-11-14T10:25:48.210Z,8.32
2022-11-14T10:28:35.322Z,6.57
2022-11-14T10:31:09.539Z,7.53
2022-11-14T10:33:48.190Z,4.93
2022-11-14T10:36:22.994Z,4.53
2022-11-14T10:38:55.537Z,5.10
2022-11-14T10:41:54.999Z,7.10
2022-11-14T10:44:22.757Z,5.50
2022-11-14T10:46:55.057Z,7.20
2022-11-14T10:49:24.932Z,4.60
2022-11-14T10:51:56.300Z,7.35
2022-11-14T10:54:28.687Z,8.25
2022-11-14T10:56:58.728Z,8.25
2022-11-14T10:59:27.800Z,5.43
2022-11-14T11:01:57.493Z,8.18
2022-11-14T11:04:30.391Z,7.70
2022-11-14T11:07:32.667Z,10.13
2022-11-14T11:10:19.573Z,7.55
2022-11-14T11:12:51.367Z,9.00
2022-11-14T11:15:22.032Z,6.03
2022-11-14T11:17:56.449Z,7.55
2022-11-14T11:20:31.655Z,5.35
2022-11-14T11:23:04.309Z,5.15
2022-11-14T11:25:34.158Z,7.28
2022-11-14T11:28:09.412Z,6.78
2022-11-14T11:30:37.211Z,6.15
2022-11-14T11:33:23.628Z,6.82
2022-11-14T11:35:54.417Z,29.60
2022-11-14T11:38:23.163Z,7.90
2022-11-14T11:40:55.286Z,6.38
2022-11-14T11:43:40.504Z,17.23
2022-11-14T11:46:16.454Z,13.40
2022-11-14T11:48:47.402Z,7.90
2022-11-14T11:51:18.661Z,8.45
2022-11-14T11:53:51.996Z,7.50
2022-11-14T11:56:26.611Z,6.45
2022-11-14T11:59:01.723Z,3.85
2022-11-14T12:01:29.555Z,6.65
2022-11-14T12:03:58.423Z,7.95
2022-11-14T12:06:28.593Z,6.72
2022-11-14T12:09:07.779Z,6.93
2022-11-14T12:11:38.769Z,2.97
2022-11-14T12:14:32.104Z,8.10
2022-11-14T12:17:25.292Z,8.23
2022-11-14T12:20:22.174Z,9.40
2022-11-14T12:23:09.072Z,8.00
2022-11-14T12:25:47.164Z,7.80
2022-11-14T12:28:31.541Z,9.40
2022-11-14T12:31:03.926Z,9.52
2022-11-14T12:33:35.820Z,9.25
2022-11-14T12:36:08.033Z,10.43
2022-11-14T12:38:43.721Z,8.98
2022-11-14T12:41:12.472Z,11.02
2022-11-14T12:43:42.944Z,10.80
2022-11-14T12:46:13.811Z,11.90
2022-11-14T12:48:43.490Z,11.57
2022-11-14T12:51:52.382Z,12.48
2022-11-14T12:54:45.581Z,12.52
2022-11-14T12:57:40.749Z,13.68
2022-11-14T13:00:10.451Z,5.80
2022-11-14T13:03:05.156Z,12.50
2022-11-14T13:05:53.226Z,13.77
2022-11-14T13:08:38.486Z,16.67
2022-11-14T13:11:59.142Z,13.93
2022-11-14T13:14:44.815Z,13.43
2022-11-14T13:17:43.263Z,9.70
2022-11-14T13:20:52.416Z,9.85
2022-11-14T13:23:58.017Z,7.32
2022-11-14T13:26:49.641Z,9.05
2022-11-14T13:29:57.776Z,8.82
2022-11-14T13:33:02.262Z,9.57
2022-11-14T13:36:05.678Z,11.52
2022-11-14T13:39:17.228Z,10.48
2022-11-14T13:42:23.887Z,6.15
2022-11-14T13:45:16.358Z,7.47
2022-11-14T13:48:14.768Z,8.80
2022-11-14T13:50:44.131Z,11.68
2022-11-14T13:53:20.224Z,13.10
2022-11-14T13:55:57.427Z,17.17
2022-11-14T13:58:40.716Z,6.47
2022-11-14T14:01:24.635Z,6.53
2022-11-14T14:04:16.025Z,7.53
2022-11-14T14:06:56.556Z,7.20
2022-11-14T14:09:33.673Z,7.95
2022-11-14T14:12:18.354Z,8.27
2022-11-14T14:15:04.333Z,9.48
2022-11-14T14:17:39.154Z,8.05
2022-11-14T14:20:21.090Z,7.72
2022-11-14T14:22:58.802Z,9.07
2022-11-14T14:25:40.103Z,7.47
2022-11-14T14:30:40.794Z,8.18
2022-11-14T14:33:14.502Z,8.23
2022-11-14T14:35:51.663Z,8.00
2022-11-14T14:38:24.803Z,7.78
2022-11-14T14:40:55.854Z,10.07
2022-11-14T14:43:28.480Z,13.02
2022-11-14T14:45:56.565Z,11.23
2022-11-14T14:48:27.956Z,11.48
2022-11-14T14:50:57.354Z,10.93
2022-11-14T14:53:26.810Z,8.48
2022-11-14T14:55:58.623Z,11.23
2022-11-14T14:58:29.763Z,9.52
2022-11-14T15:01:00.624Z,9.95
2022-11-14T15:03:36.770Z,8.50
2022-11-14T15:06:08.229Z,9.90
2022-11-14T15:08:39.686Z,10.70
2022-11-14T15:11:09.498Z,10.05
2022-11-14T15:13:38.793Z,8.07
2022-11-14T15:16:09.260Z,11.52
2022-11-14T15:18:37.899Z,9.70
2022-11-14T15:21:16.263Z,8.50
2022-11-14T15:23:44.577Z,8.88
2022-11-14T15:26:19.086Z,9.27
2022-11-14T15:28:47.121Z,10.00
2022-11-14T15:31:20.095Z,7.40
2022-11-14T15:34:02.049Z,9.65
2022-11-14T15:36:29.964Z,8.02
2022-11-14T15:39:03.968Z,8.77
2022-11-14T15:41:36.172Z,8.50
2022-11-14T15:44:05.307Z,9.50
2022-11-14T15:46:41.447Z,9.52
2022-11-14T15:49:11.659Z,8.88
2022-11-14T15:51:44.473Z,10.13
2022-11-14T15:54:27.314Z,9.57
2022-11-14T15:56:58.184Z,12.90
2022-11-14T15:59:27.394Z,11.35
2022-11-14T16:01:59.484Z,4.68
2022-11-14T16:04:34.130Z,12.43
2022-11-14T16:07:02.422Z,11.40
2022-11-14T16:09:30.240Z,11.98
2022-11-14T16:11:59.351Z,11.85
2022-11-14T16:14:27.135Z,12.70
2022-11-14T16:16:54.920Z,8.30
2022-11-14T16:19:22.976Z,9.93
2022-11-14T16:21:50.898Z,10.88
2022-11-14T16:24:20.544Z,9.30
2022-11-14T16:26:49.200Z,14.02
2022-11-14T16:29:18.405Z,12.23
2022-11-14T16:31:47.198Z,11.82
2022-11-14T16:34:19.170Z,10.30
2022-11-14T16:36:48.634Z,9.77
2022-11-14T16:39:16.582Z,9.15
2022-11-14T16:41:44.616Z,13.77
2022-11-14T16:44:17.420Z,12.98
2022-11-14T16:46:47.533Z,10.73
2022-11-14T16:49:16.265Z,20.73
2022-11-14T16:51:48.491Z,11.13
2022-11-14T16:54:18.094Z,11.77
2022-11-14T16:56:46.218Z,13.98
2022-11-14T16:59:14.381Z,12.77
2022-11-14T17:01:42.849Z,12.70
2022-11-14T17:06:40.851Z,5.00
2022-11-14T17:09:09.474Z,4.70
2022-11-14T17:11:37.178Z,5.18
2022-11-14T17:14:05.082Z,10.20
2022-11-14T17:16:32.943Z,7.50
2022-11-14T17:19:00.835Z,6.25
2022-11-14T17:21:30.106Z,5.82
2022-11-14T17:24:00.504Z,7.32
2022-11-14T17:26:29.330Z,6.07
2022-11-14T17:28:57.659Z,7.47
2022-11-14T17:31:25.673Z,8.07
2022-11-14T17:33:54.242Z,8.50
2022-11-14T17:36:23.103Z,7.82
2022-11-14T17:38:52.588Z,4.80
2022-11-14T17:41:20.610Z,5.22
2022-11-14T17:43:48.447Z,7.68
2022-11-14T17:46:16.528Z,6.22
2022-11-14T17:48:44.825Z,9.05
2022-11-14T17:51:14.348Z,9.15
2022-11-14T17:53:43.358Z,6.32
2022-11-14T17:56:14.918Z,6.97
2022-11-14T17:58:43.491Z,7.13
2022-11-14T18:01:12.188Z,9.55
2022-11-14T18:03:40.112Z,3.80
2022-11-14T18:06:09.264Z,7.25
2022-11-14T18:08:37.137Z,6.35
2022-11-14T18:11:06.620Z,6.07
2022-11-14T18:13:35.995Z,6.30
2022-11-14T18:16:06.493Z,7.72
2022-11-14T18:18:35.846Z,7.32
2022-11-14T18:21:08.165Z,7.03
2022-11-14T18:23:36.486Z,8.43
2022-11-14T18:26:10.385Z,5.10
2022-11-14T18:28:40.084Z,6.93
2022-11-14T18:31:10.744Z,6.03
2022-11-14T18:33:39.221Z,9.75
2022-11-14T18:36:09.893Z,11.00
2022-11-14T18:38:37.776Z,9.82
2022-11-14T18:41:09.390Z,7.05
2022-11-14T18:43:37.220Z,10.80
2022-11-14T18:46:08.385Z,10.40
2022-11-14T18:48:38.039Z,12.68
2022-11-14T18:51:08.122Z,13.52
2022-11-14T18:53:37.446Z,11.65
2022-11-14T18:56:06.072Z,8.15
2022-11-14T18:58:35.903Z,9.85
2022-11-14T19:01:12.326Z,10.30
2022-11-14T19:03:40.582Z,8.85
2022-11-14T19:06:10.723Z,9.20
2022-11-14T19:08:39.213Z,13.23
2022-11-14T19:11:09.550Z,7.55
2022-11-14T19:13:37.428Z,10.32
2022-11-14T19:16:06.825Z,9.27
2022-11-14T19:18:35.940Z,10.77
2022-11-14T19:21:06.096Z,8.90
2022-11-14T19:23:35.542Z,6.75
2022-11-14T19:26:03.610Z,6.90
2022-11-14T19:28:31.803Z,8.20
2022-11-14T19:31:03.108Z,7.47
2022-11-14T19:33:31.652Z,8.52
2022-11-14T19:36:06.361Z,7.47
2022-11-14T19:38:34.366Z,8.35
2022-11-14T19:41:07.469Z,9.60
2022-11-14T19:43:35.352Z,8.82
2022-11-14T19:46:04.039Z,9.02
2022-11-14T19:48:32.594Z,8.57
2022-11-14T19:51:03.571Z,10.48
2022-11-14T19:53:32.039Z,9.43
2022-11-14T19:56:01.458Z,9.23
2022-11-14T19:58:29.556Z,7.63
2022-11-14T20:01:04.847Z,6.60
2022-11-14T20:03:33.138Z,8.65
2022-11-14T20:08:30.578Z,6.95
2022-11-14T20:10:59.943Z,9.93
2022-11-14T20:13:30.576Z,8.07
2022-11-14T20:16:00.062Z,10.73
2022-11-14T20:18:29.764Z,8.13
2022-11-14T20:20:58.634Z,8.88
2022-11-14T20:23:28.210Z,9.50
2022-11-14T20:25:57.170Z,9.95
2022-11-14T20:28:25.018Z,10.65
2022-11-14T20:30:53.407Z,9.50
2022-11-14T20:38:16.779Z,9.52
2022-11-14T20:40:54.732Z,8.27
2022-11-14T20:43:22.669Z,9.05
2022-11-14T20:45:57.546Z,9.85
2022-11-14T20:48:25.848Z,10.50
2022-11-14T20:53:21.142Z,10.57
2022-11-14T20:55:54.763Z,8.95
2022-11-14T20:58:22.585Z,9.10
2022-11-14T21:00:50.702Z,8.57
2022-11-14T21:03:18.530Z,8.05
2022-11-14T21:05:46.404Z,8.65
2022-11-14T21:08:15.363Z,7.70
2022-11-14T21:10:47.759Z,7.28
2022-11-14T21:13:42.250Z,5.63
2022-11-14T21:16:12.101Z,5.95
2022-11-14T21:18:45.192Z,6.10
2022-11-14T21:21:17.597Z,5.82
2022-11-14T21:23:46.539Z,5.22
2022-11-14T21:26:16.680Z,5.38
2022-11-14T21:28:47.678Z,5.30
2022-11-14T21:31:17.655Z,5.28
2022-11-14T21:33:45.880Z,3.17
2022-11-14T21:36:47.098Z,3.88
2022-11-14T21:39:04.853Z,4.80
2022-11-14T21:41:33.119Z,2.70
2022-11-14T21:44:03.931Z,3.85
2022-11-14T21:46:31.770Z,3.80
2022-11-14T21:48:59.563Z,1.98
2022-11-14T21:51:29.294Z,1.95
2022-11-14T21:53:59.337Z,1.85
2022-11-14T21:56:29.204Z,1.45
2022-11-14T21:59:12.796Z,1.58
2022-11-14T22:02:01.057Z,1.98
2022-11-14T22:04:29.594Z,2.13
2022-11-14T22:06:57.562Z,2.00
2022-11-14T22:09:27.526Z,2.20
2022-11-14T22:11:55.540Z,1.75
2022-11-14T22:14:23.478Z,1.80
2022-11-14T22:16:52.843Z,1.63
2022-11-14T22:19:20.626Z,2.50
2022-11-14T22:21:48.432Z,1.40
2022-11-14T22:24:16.252Z,1.77
2022-11-14T22:26:44.113Z,1.30
2022-11-14T22:29:11.959Z,1.15
2022-11-14T22:31:39.821Z,1.08
2022-11-14T22:34:09.179Z,0.90
2022-11-14T22:36:37.037Z,0.88
2022-11-14T22:39:06.027Z,1.40
2022-11-14T22:41:34.403Z,1.38
2022-11-14T22:44:02.875Z,1.27
2022-11-14T22:46:31.197Z,1.35
2022-11-14T22:48:59.374Z,1.73
2022-11-14T22:51:29.156Z,1.05
2022-11-14T22:53:58.589Z,0.63
2022-11-14T22:56:28.196Z,0.95
2022-11-14T22:58:56.802Z,0.85
2022-11-14T23:01:26.577Z,0.93
2022-11-14T23:03:55.546Z,0.93
2022-11-14T23:06:24.183Z,0.95
2022-11-14T23:08:54.459Z,0.45
2022-11-14T23:11:24.485Z,1.00
2022-11-14T23:13:54.293Z,0.88
2022-11-14T23:16:26.184Z,0.45
2022-11-14T23:18:56.213Z,0.70
2022-11-14T23:21:26.268Z,0.90
2022-11-14T23:23:56.474Z,0.63
2022-11-14T23:26:25.609Z,0.47
2022-11-14T23:28:53.971Z,0.50
2022-11-14T23:33:51.623Z,0.40
2022-11-14T23:36:19.519Z,1.08
2022-11-14T23:38:47.528Z,0.73
2022-11-14T23:41:18.817Z,1.00
2022-11-14T23:43:47.020Z,0.65
2022-11-14T23:46:15.264Z,0.45
2022-11-14T23:48:43.175Z,0.75
2022-11-14T23:51:10.965Z,1.02
2022-11-14T23:53:38.798Z,0.40
2022-11-14T23:56:06.924Z,0.60
2022-11-14T23:58:36.140Z,0.80
